createdAt,value
2019-05-19T00:01:51.886Z,15.60
2019-05-19T00:04:21.170Z,15.50
2019-05-19T00:06:50.453Z,15.40
2019-05-19T00:09:19.646Z,15.40
2019-05-19T00:11:48.783Z,15.30
2019-05-19T00:14:18.161Z,15.20
2019-05-19T00:16:47.361Z,15.30
2019-05-19T00:19:26.219Z,15.30
2019-05-19T00:21:47.281Z,15.20
2019-05-19T00:24:16.467Z,15.20
2019-05-19T00:26:45.760Z,15.20
2019-05-19T00:29:14.951Z,15.30
2019-05-19T00:31:44.181Z,15.30
2019-05-19T00:34:13.282Z,15.30
2019-05-19T00:36:42.588Z,15.20
2019-05-19T00:39:11.848Z,15.30
2019-05-19T00:41:41.007Z,15.40
2019-05-19T00:44:10.304Z,15.30
2019-05-19T00:46:39.521Z,15.20
2019-05-19T00:49:08.801Z,15.20
2019-05-19T00:51:38.801Z,15.20
2019-05-19T00:54:08.091Z,15.30
2019-05-19T00:56:37.803Z,15.40
2019-05-19T00:59:07.884Z,15.40
2019-05-19T01:01:37.179Z,15.50
2019-05-19T01:04:06.425Z,15.50
2019-05-19T01:06:35.739Z,15.50
2019-05-19T01:09:06.675Z,15.50
2019-05-19T01:11:35.855Z,15.50
2019-05-19T01:14:05.463Z,15.60
2019-05-19T01:16:34.728Z,15.60
2019-05-19T01:19:04.008Z,15.70
2019-05-19T01:21:34.100Z,15.60
2019-05-19T01:24:03.397Z,15.60
2019-05-19T01:26:32.660Z,15.60
2019-05-19T01:29:01.951Z,15.60
2019-05-19T01:31:31.155Z,15.60
2019-05-19T01:34:00.419Z,15.70
2019-05-19T01:36:29.710Z,15.60
2019-05-19T01:38:58.909Z,15.70
2019-05-19T01:41:28.170Z,15.60
2019-05-19T01:43:57.395Z,15.60
2019-05-19T01:46:26.673Z,15.50
2019-05-19T01:48:55.884Z,15.60
2019-05-19T01:51:25.203Z,15.60
2019-05-19T01:53:54.363Z,15.60
2019-05-19T01:56:23.488Z,15.70
2019-05-19T01:58:52.718Z,15.70
2019-05-19T02:01:22.050Z,15.70
2019-05-19T02:03:51.273Z,15.70
2019-05-19T02:06:20.558Z,15.70
2019-05-19T02:08:49.715Z,15.70
2019-05-19T02:11:18.914Z,15.70
2019-05-19T02:13:48.148Z,15.80
2019-05-19T02:16:17.391Z,15.80
2019-05-19T02:18:46.611Z,15.70
2019-05-19T02:21:15.827Z,15.70
2019-05-19T02:23:45.122Z,15.70
2019-05-19T02:26:14.373Z,15.70
2019-05-19T02:28:43.688Z,15.70
2019-05-19T02:31:12.888Z,15.70
2019-05-19T02:33:42.196Z,15.70
2019-05-19T02:36:11.474Z,15.70
2019-05-19T02:38:40.640Z,15.70
2019-05-19T02:41:12.471Z,15.70
2019-05-19T02:43:42.247Z,15.70
2019-05-19T02:46:12.120Z,15.70
2019-05-19T02:48:42.336Z,15.70
2019-05-19T02:51:13.423Z,15.60
2019-05-19T02:53:44.402Z,15.50
2019-05-19T02:56:14.468Z,15.50
2019-05-19T02:58:44.552Z,15.50
2019-05-19T03:01:13.759Z,15.50
2019-05-19T03:03:43.031Z,15.60
2019-05-19T03:06:12.321Z,15.50
2019-05-19T03:08:41.540Z,15.60
2019-05-19T03:11:10.743Z,15.50
2019-05-19T03:13:39.879Z,15.40
2019-05-19T03:16:08.996Z,15.50
2019-05-19T03:18:38.224Z,15.60
2019-05-19T03:21:10.989Z,15.60
2019-05-19T03:23:38.392Z,15.60
2019-05-19T03:26:07.595Z,15.60
2019-05-19T03:28:36.776Z,15.70
2019-05-19T03:31:19.644Z,15.80
2019-05-19T03:33:50.433Z,15.90
2019-05-19T03:36:19.636Z,16.00
2019-05-19T03:38:48.885Z,16.00
2019-05-19T03:41:18.020Z,16.00
2019-05-19T03:43:47.241Z,16.10
2019-05-19T03:46:16.480Z,16.10
2019-05-19T03:48:45.691Z,16.10
2019-05-19T03:51:29.386Z,16.20
2019-05-19T03:53:45.723Z,16.10
2019-05-19T03:56:15.237Z,16.10
2019-05-19T03:58:44.435Z,16.00
2019-05-19T04:01:13.636Z,16.00
2019-05-19T04:03:42.846Z,16.00
2019-05-19T04:06:12.480Z,16.00
2019-05-19T04:08:42.320Z,16.00
2019-05-19T04:11:11.556Z,16.10
2019-05-19T04:13:40.668Z,16.10
2019-05-19T04:16:09.885Z,16.10
2019-05-19T04:18:39.125Z,16.10
2019-05-19T04:21:08.442Z,16.00
2019-05-19T04:23:37.633Z,16.10
2019-05-19T04:26:06.845Z,16.20
2019-05-19T04:28:35.961Z,16.30
2019-05-19T04:31:05.093Z,16.40
2019-05-19T04:33:34.333Z,16.40
2019-05-19T04:36:03.614Z,16.30
2019-05-19T04:38:32.794Z,16.30
2019-05-19T04:41:01.935Z,16.30
2019-05-19T04:43:31.145Z,16.40
2019-05-19T04:46:00.422Z,16.60
2019-05-19T04:48:29.740Z,16.60
2019-05-19T04:50:58.974Z,16.70
2019-05-19T04:53:28.162Z,16.80
2019-05-19T04:55:57.465Z,16.90
2019-05-19T04:58:26.658Z,16.80
2019-05-19T05:00:55.811Z,16.80
2019-05-19T05:03:25.137Z,16.80
2019-05-19T05:05:54.413Z,16.80
2019-05-19T05:08:29.946Z,16.70
2019-05-19T05:10:54.475Z,16.80
2019-05-19T05:13:23.689Z,16.80
2019-05-19T05:15:52.905Z,16.90
2019-05-19T05:18:22.038Z,17.00
2019-05-19T05:20:51.217Z,17.10
2019-05-19T05:23:20.325Z,17.00
2019-05-19T05:25:49.600Z,16.90
2019-05-19T05:28:18.870Z,16.80
2019-05-19T05:30:48.044Z,16.90
2019-05-19T05:33:17.170Z,16.80
2019-05-19T05:35:46.446Z,16.80
2019-05-19T05:38:15.576Z,16.80
2019-05-19T05:40:44.775Z,16.80
2019-05-19T05:43:13.973Z,17.00
2019-05-19T05:45:43.256Z,17.20
2019-05-19T05:48:12.508Z,17.30
2019-05-19T05:50:41.687Z,17.20
2019-05-19T05:53:10.943Z,17.30
2019-05-19T05:55:40.150Z,17.20
2019-05-19T05:58:09.270Z,17.00
2019-05-19T06:00:38.502Z,17.00
2019-05-19T06:03:07.644Z,16.90
2019-05-19T06:05:36.918Z,16.80
2019-05-19T06:08:06.086Z,16.80
2019-05-19T06:10:35.261Z,16.90
2019-05-19T06:13:04.527Z,16.80
2019-05-19T06:15:33.796Z,16.90
2019-05-19T06:18:03.080Z,16.80
2019-05-19T06:20:32.316Z,16.70
2019-05-19T06:23:01.454Z,16.70
2019-05-19T06:25:30.762Z,16.60
2019-05-19T06:27:59.913Z,16.70
2019-05-19T06:30:29.167Z,16.50
2019-05-19T06:32:59.776Z,16.50
2019-05-19T06:35:29.014Z,16.40
2019-05-19T06:38:31.685Z,16.40
2019-05-19T06:41:00.864Z,16.30
2019-05-19T06:43:30.052Z,16.30
2019-05-19T06:46:01.215Z,16.20
2019-05-19T06:48:31.128Z,16.30
2019-05-19T06:51:08.707Z,16.30
2019-05-19T06:53:38.126Z,16.30
2019-05-19T06:56:07.318Z,16.30
2019-05-19T06:58:36.493Z,16.30
2019-05-19T07:01:05.714Z,16.50
2019-05-19T07:03:35.049Z,16.60
2019-05-19T07:06:04.408Z,16.50
2019-05-19T07:08:33.579Z,16.60
2019-05-19T07:11:02.852Z,16.70
2019-05-19T07:13:31.960Z,16.70
2019-05-19T07:16:01.243Z,16.70
2019-05-19T07:18:30.645Z,16.80
2019-05-19T07:20:59.808Z,16.90
2019-05-19T07:23:29.117Z,16.80
2019-05-19T07:25:58.246Z,16.90
2019-05-19T07:28:27.392Z,17.10
2019-05-19T07:30:56.618Z,17.10
2019-05-19T07:33:25.992Z,17.20
2019-05-19T07:35:55.160Z,17.40
2019-05-19T07:38:24.362Z,17.40
2019-05-19T07:40:53.568Z,17.40
2019-05-19T07:43:22.877Z,17.60
2019-05-19T07:45:52.058Z,17.70
2019-05-19T07:48:21.184Z,17.80
2019-05-19T07:50:50.434Z,18.00
2019-05-19T07:53:19.639Z,18.40
2019-05-19T07:55:48.804Z,18.40
2019-05-19T07:58:18.322Z,18.50
2019-05-19T08:00:47.676Z,18.70
2019-05-19T08:03:16.912Z,18.60
2019-05-19T08:05:46.225Z,18.50
2019-05-19T08:08:15.386Z,18.40
2019-05-19T08:10:44.972Z,18.40
2019-05-19T08:13:14.262Z,18.30
2019-05-19T08:15:43.599Z,18.50
2019-05-19T08:18:12.834Z,18.60
2019-05-19T08:20:41.991Z,18.80
2019-05-19T08:23:11.289Z,19.10
2019-05-19T08:25:40.641Z,19.30
2019-05-19T08:28:10.033Z,19.50
2019-05-19T08:30:39.429Z,19.90
2019-05-19T08:33:08.747Z,20.20
2019-05-19T08:35:37.921Z,20.60
2019-05-19T08:38:07.182Z,20.50
2019-05-19T08:40:36.389Z,20.70
2019-05-19T08:43:05.801Z,20.90
2019-05-19T08:45:35.016Z,21.10
2019-05-19T08:48:04.243Z,21.30
2019-05-19T08:50:33.486Z,21.40
2019-05-19T08:53:03.419Z,21.60
2019-05-19T08:55:32.655Z,21.50
2019-05-19T08:58:01.868Z,22.00
2019-05-19T09:00:34.953Z,22.10
2019-05-19T09:03:03.631Z,22.00
2019-05-19T09:05:32.856Z,22.10
2019-05-19T09:08:02.293Z,21.90
2019-05-19T09:10:31.822Z,21.70
2019-05-19T09:13:00.966Z,21.90
2019-05-19T09:15:30.122Z,22.20
2019-05-19T09:17:59.361Z,22.50
2019-05-19T09:20:28.618Z,22.60
2019-05-19T09:22:57.994Z,22.30
2019-05-19T09:25:28.306Z,22.30
2019-05-19T09:27:57.327Z,22.20
2019-05-19T09:30:26.657Z,22.50
2019-05-19T09:32:58.411Z,22.50
2019-05-19T09:35:29.445Z,22.60
2019-05-19T09:37:59.704Z,22.60
2019-05-19T09:40:28.867Z,22.30
2019-05-19T09:42:58.201Z,22.30
2019-05-19T09:45:27.426Z,22.50
2019-05-19T09:47:56.873Z,22.60
2019-05-19T09:50:28.050Z,22.80
2019-05-19T09:52:59.122Z,23.10
2019-05-19T09:55:32.961Z,23.10
2019-05-19T09:58:15.793Z,23.20
2019-05-19T10:00:47.079Z,23.10
2019-05-19T10:03:24.117Z,23.30
2019-05-19T10:05:54.489Z,23.50
2019-05-19T10:08:29.065Z,23.30
2019-05-19T10:11:09.451Z,23.40
2019-05-19T10:13:40.105Z,23.50
2019-05-19T10:16:16.834Z,23.50
2019-05-19T10:18:42.521Z,23.60
2019-05-19T10:21:11.865Z,23.70
2019-05-19T10:23:41.993Z,23.40
2019-05-19T10:26:11.291Z,23.50
2019-05-19T10:28:40.450Z,23.50
2019-05-19T10:31:09.719Z,23.70
2019-05-19T10:33:38.989Z,23.60
2019-05-19T10:36:09.893Z,23.30
2019-05-19T10:38:39.828Z,22.90
2019-05-19T10:41:09.094Z,22.60
2019-05-19T10:43:38.445Z,22.30
2019-05-19T10:46:07.564Z,22.20
2019-05-19T10:48:37.914Z,22.20
2019-05-19T10:51:07.107Z,22.10
2019-05-19T10:53:36.259Z,22.10
2019-05-19T10:56:06.463Z,22.10
2019-05-19T10:58:35.737Z,23.00
2019-05-19T11:01:05.037Z,23.80
2019-05-19T11:03:34.376Z,24.30
2019-05-19T11:06:03.760Z,24.80
2019-05-19T11:08:33.453Z,25.00
2019-05-19T11:11:02.589Z,25.00
2019-05-19T11:13:31.715Z,24.70
2019-05-19T11:16:00.991Z,24.30
2019-05-19T11:18:30.111Z,23.90
2019-05-19T11:20:59.323Z,23.50
2019-05-19T11:23:28.727Z,23.20
2019-05-19T11:25:58.067Z,23.60
2019-05-19T11:28:27.269Z,25.20
2019-05-19T11:30:56.604Z,26.90
2019-05-19T11:33:25.844Z,28.40
2019-05-19T11:35:55.022Z,29.70
2019-05-19T11:38:24.153Z,29.20
2019-05-19T11:40:54.781Z,28.40
2019-05-19T11:43:24.048Z,27.70
2019-05-19T11:45:53.237Z,27.20
2019-05-19T11:48:22.455Z,27.30
2019-05-19T11:50:51.742Z,27.10
2019-05-19T11:53:20.942Z,26.40
2019-05-19T11:55:50.180Z,26.20
2019-05-19T11:58:19.493Z,25.90
2019-05-19T12:00:48.733Z,25.50
2019-05-19T12:03:17.901Z,26.70
2019-05-19T12:05:47.069Z,28.20
2019-05-19T12:08:16.341Z,29.20
2019-05-19T12:10:45.534Z,30.60
2019-05-19T12:13:14.725Z,30.10
2019-05-19T12:15:44.044Z,30.10
2019-05-19T12:18:19.638Z,29.40
2019-05-19T12:20:50.083Z,28.50
2019-05-19T12:23:21.397Z,28.40
2019-05-19T12:28:47.702Z,27.80
2019-05-19T12:31:16.822Z,27.30
2019-05-19T12:33:51.878Z,27.30
2019-05-19T12:36:16.844Z,27.20
2019-05-19T12:38:45.996Z,28.40
2019-05-19T12:41:15.101Z,28.20
2019-05-19T12:43:45.973Z,27.10
2019-05-19T12:46:16.748Z,26.10
2019-05-19T12:48:46.210Z,25.40
2019-05-19T12:51:15.457Z,24.80
2019-05-19T12:53:44.704Z,23.90
2019-05-19T12:56:13.952Z,23.40
2019-05-19T12:58:43.079Z,23.10
2019-05-19T13:01:12.197Z,22.80
2019-05-19T13:03:41.376Z,22.50
2019-05-19T13:06:10.609Z,22.30
2019-05-19T13:08:39.917Z,21.90
2019-05-19T13:11:09.279Z,21.60
2019-05-19T13:13:38.569Z,21.30
2019-05-19T13:16:07.789Z,21.20
2019-05-19T13:18:36.987Z,21.00
2019-05-19T13:21:06.112Z,20.80
2019-05-19T13:23:35.367Z,20.60
2019-05-19T13:26:04.659Z,20.50
2019-05-19T13:28:34.091Z,20.40
2019-05-19T13:31:03.607Z,20.30
2019-05-19T13:33:32.878Z,20.10
2019-05-19T13:36:02.113Z,20.10
2019-05-19T13:38:31.381Z,20.00
2019-05-19T13:41:00.546Z,19.90
2019-05-19T13:43:29.783Z,19.80
2019-05-19T13:45:59.288Z,19.80
2019-05-19T13:48:28.904Z,19.70
2019-05-19T13:50:58.331Z,19.70
2019-05-19T13:53:27.500Z,19.60
2019-05-19T13:55:56.838Z,19.60
2019-05-19T13:58:25.928Z,19.50
2019-05-19T14:00:55.170Z,19.40
2019-05-19T14:03:24.680Z,19.40
2019-05-19T14:05:54.033Z,19.40
2019-05-19T14:08:23.185Z,19.40
2019-05-19T14:10:52.465Z,19.40
2019-05-19T14:13:21.722Z,19.50
2019-05-19T14:15:50.833Z,19.30
2019-05-19T14:18:20.088Z,19.20
2019-05-19T14:20:49.271Z,19.00
2019-05-19T14:23:18.460Z,18.90
2019-05-19T14:25:47.781Z,18.80
2019-05-19T14:28:16.998Z,18.80
2019-05-19T14:30:46.114Z,18.70
2019-05-19T14:33:15.416Z,18.70
2019-05-19T14:35:44.625Z,18.70
2019-05-19T14:38:13.895Z,18.60
2019-05-19T14:40:44.185Z,18.60
2019-05-19T14:43:14.488Z,18.70
2019-05-19T14:45:43.677Z,18.60
2019-05-19T14:48:12.880Z,18.60
2019-05-19T14:50:41.992Z,18.70
2019-05-19T14:53:11.170Z,18.70
2019-05-19T14:55:43.590Z,18.70
2019-05-19T14:58:12.048Z,18.70
2019-05-19T15:00:41.223Z,18.70
2019-05-19T15:03:10.475Z,18.70
2019-05-19T15:05:39.835Z,18.60
2019-05-19T15:08:09.121Z,18.60
2019-05-19T15:10:38.544Z,18.60
2019-05-19T15:13:07.913Z,18.50
2019-05-19T15:15:45.306Z,18.40
2019-05-19T15:18:10.574Z,18.40
2019-05-19T15:20:39.828Z,18.30
2019-05-19T15:23:08.936Z,18.30
2019-05-19T15:25:57.417Z,18.30
2019-05-19T15:28:26.725Z,18.30
2019-05-19T15:30:55.958Z,18.30
2019-05-19T15:33:25.324Z,18.30
2019-05-19T15:35:54.612Z,18.40
2019-05-19T15:38:23.793Z,18.50
2019-05-19T15:40:52.973Z,18.50
2019-05-19T15:43:22.258Z,18.50
2019-05-19T15:45:51.381Z,18.50
2019-05-19T15:48:20.661Z,18.50
2019-05-19T15:50:49.875Z,18.50
2019-05-19T15:53:19.065Z,18.60
2019-05-19T15:55:48.320Z,18.50
2019-05-19T15:58:17.610Z,18.50
2019-05-19T16:00:46.895Z,18.60
2019-05-19T16:03:16.294Z,18.70
2019-05-19T16:05:45.621Z,18.70
2019-05-19T16:08:16.125Z,18.80
2019-05-19T16:10:47.606Z,18.80
2019-05-19T16:13:16.974Z,18.90
2019-05-19T16:15:46.255Z,18.90
2019-05-19T16:18:15.461Z,19.00
2019-05-19T16:20:44.784Z,19.00
2019-05-19T16:23:14.116Z,19.00
2019-05-19T16:25:43.297Z,19.00
2019-05-19T16:28:12.524Z,18.90
2019-05-19T16:30:41.736Z,18.80
2019-05-19T16:33:10.900Z,18.70
2019-05-19T16:35:40.208Z,18.60
2019-05-19T16:38:09.424Z,18.60
2019-05-19T16:40:38.633Z,18.50
2019-05-19T16:43:07.848Z,18.50
2019-05-19T16:45:37.240Z,18.50
2019-05-19T16:48:06.571Z,18.50
2019-05-19T16:50:35.850Z,18.40
2019-05-19T16:53:05.159Z,18.40
2019-05-19T16:55:34.443Z,18.40
2019-05-19T16:58:19.508Z,18.40
2019-05-19T17:00:34.678Z,18.50
2019-05-19T17:03:03.898Z,18.50
2019-05-19T17:05:33.177Z,18.50
2019-05-19T17:08:02.745Z,18.50
2019-05-19T17:10:33.486Z,18.50
2019-05-19T17:13:02.787Z,18.40
2019-05-19T17:15:31.971Z,18.40
2019-05-19T17:18:03.448Z,18.40
2019-05-19T17:20:32.636Z,18.30
2019-05-19T17:23:01.910Z,18.30
2019-05-19T17:25:31.170Z,18.30
2019-05-19T17:28:00.308Z,18.20
2019-05-19T17:30:29.551Z,18.10
2019-05-19T17:32:58.977Z,18.10
2019-05-19T17:35:28.736Z,18.10
2019-05-19T17:37:57.939Z,18.10
2019-05-19T17:40:27.210Z,18.00
2019-05-19T17:42:56.337Z,18.10
2019-05-19T17:45:25.550Z,18.00
2019-05-19T17:48:08.202Z,18.00
2019-05-19T17:50:33.479Z,18.10
2019-05-19T17:53:03.123Z,18.10
2019-05-19T17:55:34.518Z,18.10
2019-05-19T17:58:04.511Z,18.20
2019-05-19T18:00:41.565Z,18.20
2019-05-19T18:03:12.979Z,18.20
2019-05-19T18:05:42.210Z,18.10
2019-05-19T18:08:12.539Z,18.10
2019-05-19T18:10:41.814Z,18.20
2019-05-19T18:13:10.961Z,18.10
2019-05-19T18:15:41.371Z,18.10
2019-05-19T18:18:10.512Z,18.10
2019-05-19T18:20:39.766Z,18.10
2019-05-19T18:23:09.091Z,18.10
2019-05-19T18:25:38.198Z,18.10
2019-05-19T18:28:07.421Z,18.10
2019-05-19T18:30:36.683Z,18.20
2019-05-19T18:33:05.882Z,18.20
2019-05-19T18:35:35.089Z,18.20
2019-05-19T18:38:04.447Z,18.10
2019-05-19T18:40:33.751Z,18.20
2019-05-19T18:43:03.007Z,18.20
2019-05-19T18:45:32.172Z,18.20
2019-05-19T18:48:01.432Z,18.20
2019-05-19T18:50:31.822Z,18.20
2019-05-19T18:53:01.849Z,18.10
2019-05-19T18:55:30.958Z,18.10
2019-05-19T18:58:00.237Z,18.10
2019-05-19T19:00:34.967Z,18.00
2019-05-19T19:03:05.243Z,18.00
2019-05-19T19:05:41.218Z,18.00
2019-05-19T19:08:10.445Z,17.90
2019-05-19T19:10:39.722Z,17.90
2019-05-19T19:13:08.861Z,17.90
2019-05-19T19:15:38.015Z,17.80
2019-05-19T19:18:07.321Z,17.80
2019-05-19T19:20:36.581Z,17.70
2019-05-19T19:23:05.821Z,17.70
2019-05-19T19:25:34.943Z,17.60
2019-05-19T19:28:04.175Z,17.50
2019-05-19T19:30:38.799Z,17.50
2019-05-19T19:35:43.667Z,17.50
2019-05-19T19:38:14.677Z,17.50
2019-05-19T19:40:43.756Z,17.50
2019-05-19T19:43:13.640Z,17.50
2019-05-19T19:45:43.745Z,17.40
2019-05-19T19:48:13.024Z,17.40
2019-05-19T19:50:42.356Z,17.40
2019-05-19T19:53:11.611Z,17.40
2019-05-19T19:55:40.702Z,17.40
2019-05-19T19:58:10.835Z,17.40
2019-05-19T20:00:44.643Z,17.40
2019-05-19T20:03:14.033Z,17.30
2019-05-19T20:05:43.343Z,17.30
2019-05-19T20:08:12.908Z,17.30
2019-05-19T20:10:42.288Z,17.30
2019-05-19T20:13:11.620Z,17.20
2019-05-19T20:15:40.794Z,17.30
2019-05-19T20:18:09.912Z,17.20
2019-05-19T20:20:39.132Z,17.20
2019-05-19T20:23:08.477Z,17.20
2019-05-19T20:25:37.890Z,17.20
2019-05-19T20:28:07.184Z,17.20
2019-05-19T20:30:36.931Z,17.10
2019-05-19T20:33:06.377Z,17.20
2019-05-19T20:35:35.654Z,17.20
2019-05-19T20:38:04.898Z,17.20
2019-05-19T20:40:34.166Z,17.10
2019-05-19T20:43:03.455Z,17.00
2019-05-19T20:45:33.702Z,16.90
2019-05-19T20:48:03.072Z,17.00
2019-05-19T20:50:32.488Z,16.90
2019-05-19T20:53:01.892Z,16.90
2019-05-19T20:55:31.315Z,16.90
2019-05-19T20:58:00.458Z,16.80
2019-05-19T21:00:31.629Z,16.80
2019-05-19T21:03:00.010Z,16.80
2019-05-19T21:05:29.067Z,16.80
2019-05-19T21:07:58.146Z,16.80
2019-05-19T21:10:27.332Z,16.70
2019-05-19T21:12:57.609Z,16.70
2019-05-19T21:15:26.936Z,16.70
2019-05-19T21:17:56.145Z,16.70
2019-05-19T21:20:25.507Z,16.70
2019-05-19T21:22:54.675Z,16.70
2019-05-19T21:25:23.863Z,16.60
2019-05-19T21:27:53.042Z,16.70
2019-05-19T21:30:22.167Z,16.70
2019-05-19T21:32:51.323Z,16.80
2019-05-19T21:35:20.528Z,16.90
2019-05-19T21:37:51.240Z,17.00
2019-05-19T21:40:20.420Z,16.90
2019-05-19T21:42:49.642Z,16.90
2019-05-19T21:45:20.732Z,16.90
2019-05-19T21:47:49.876Z,16.90
2019-05-19T21:50:19.393Z,16.90
2019-05-19T21:52:48.663Z,16.90
2019-05-19T21:55:17.864Z,16.80
2019-05-19T21:57:47.155Z,16.80
2019-05-19T22:00:17.202Z,16.80
2019-05-19T22:02:46.712Z,16.80
2019-05-19T22:05:16.045Z,16.80
2019-05-19T22:07:59.051Z,16.80
2019-05-19T22:10:28.393Z,16.90
2019-05-19T22:12:57.636Z,16.90
2019-05-19T22:15:27.002Z,16.90
2019-05-19T22:17:58.053Z,17.00
2019-05-19T22:20:27.271Z,16.90
2019-05-19T22:22:56.397Z,16.90
2019-05-19T22:25:25.579Z,16.80
2019-05-19T22:27:54.833Z,16.80
2019-05-19T22:30:24.160Z,16.70
2019-05-19T22:32:53.829Z,16.70
2019-05-19T22:35:22.906Z,16.60
2019-05-19T22:37:52.108Z,16.60
2019-05-19T22:40:21.356Z,16.60
2019-05-19T22:42:50.500Z,16.60
2019-05-19T22:45:19.683Z,16.60
2019-05-19T22:47:49.828Z,16.60
2019-05-19T22:50:19.166Z,16.50
2019-05-19T22:52:48.386Z,16.50
2019-05-19T22:55:18.356Z,16.50
2019-05-19T22:57:47.656Z,16.60
2019-05-19T23:00:17.721Z,16.60
2019-05-19T23:02:46.898Z,16.60
2019-05-19T23:05:16.475Z,16.60
2019-05-19T23:07:45.668Z,16.60
2019-05-19T23:10:15.798Z,16.70
2019-05-19T23:12:45.078Z,16.70
2019-05-19T23:15:15.543Z,16.80
2019-05-19T23:17:44.664Z,16.80
2019-05-19T23:20:15.138Z,16.90
2019-05-19T23:22:44.309Z,16.80
2019-05-19T23:25:13.768Z,16.90
2019-05-19T23:27:43.168Z,16.90
2019-05-19T23:30:13.414Z,16.90
2019-05-19T23:32:42.790Z,16.80
2019-05-19T23:35:12.413Z,16.90
2019-05-19T23:37:41.673Z,16.90
2019-05-19T23:40:12.248Z,16.90
2019-05-19T23:42:41.453Z,16.80
2019-05-19T23:45:11.211Z,16.90
2019-05-19T23:47:40.339Z,16.90
2019-05-19T23:50:10.839Z,16.90
2019-05-19T23:52:39.906Z,17.00
2019-05-19T23:55:09.465Z,17.00
2019-05-19T23:57:38.606Z,16.90
